Time;durP1;ratioP1;P1;durP2;ratioP2;P2;SDS_P1;SDS_P2;PMS_P1;PMS_P2;Temp;Humidity;BMP_temperature;BMP_pressure;BME280_temperature;BME280_humidity;BME280_pressure;Samples;Min_cycle;Max_cycle;Signal;HPM_P1;HPM_P2
2022/10/06 00:09:31;;;;;;;;;;;;;;;12.54;79.85;98761.69;4468031;28;19922;-77
2022/10/06 00:11:59;;;;;;;;;;;;;;;12.56;79.62;98764.91;4956987;28;20313;-76
2022/10/06 00:14:27;;;;;;;;;;;;;;;12.54;79.64;98761.69;4982691;28;19926;-77
2022/10/06 00:16:55;;;;;;;;;;;;;;;12.53;79.59;98771.00;4937633;28;20012;-79
2022/10/06 00:19:23;;;;;;;;;;;;;;;12.50;79.70;98766.13;4952482;28;19926;-78
2022/10/06 00:21:51;;;;;;;;;;;;;;;12.50;79.81;98766.13;4965744;28;19926;-81
2022/10/06 00:24:18;;;;;;;;;;;;;;;12.48;79.79;98767.56;4966207;28;20061;-81
2022/10/06 00:26:48;;;;;;;;;;;;;;;12.46;79.64;98777.94;4990212;28;19933;-81
2022/10/06 00:29:17;;;;;;;;;;;;;;;12.47;79.99;98782.31;4988176;28;20300;-81
2022/10/06 00:31:47;;;;;;;;;;;;;;;12.44;79.95;98778.25;4952460;28;19934;-86
2022/10/06 00:34:17;;;;;;;;;;;;;;;12.46;79.98;98786.91;4983447;28;19926;-85
2022/10/06 00:36:45;;;;;;;;;;;;;;;12.45;79.67;98784.50;4976279;28;19934;-86
2022/10/06 00:39:13;;;;;;;;;;;;;;;12.44;79.83;98788.34;4974958;28;19930;-85
2022/10/06 00:41:42;;;;;;;;;;;;;;;12.44;79.69;98780.97;4944333;28;19926;-77
2022/10/06 00:44:11;;;;;;;;;;;;;;;12.43;79.86;98787.53;4987327;28;19926;-76
2022/10/06 00:46:39;;;;;;;;;;;;;;;12.43;79.83;98790.28;4960597;28;20026;-80
2022/10/06 00:49:08;;;;;;;;;;;;;;;12.44;79.97;98794.59;4950159;28;20021;-81
2022/10/06 00:51:36;;;;;;;;;;;;;;;12.43;79.87;98792.19;4974623;28;19930;-84
2022/10/06 00:54:04;;;;;;;;;;;;;;;12.43;79.57;98801.16;4970175;28;19953;-84
2022/10/06 00:56:32;;;;;;;;;;;;;;;12.46;79.27;98807.91;4941591;28;19930;-80
2022/10/06 00:59:01;;;;;;;;;;;;;;;12.51;78.87;98799.66;4960165;28;19926;-80
2022/10/06 01:01:31;;;;;;;;;;;;;;;12.55;78.46;98806.94;4939261;28;19927;-76
2022/10/06 01:04:00;;;;;;;;;;;;;;;12.61;77.99;98798.66;4957693;28;19936;-76
2022/10/06 01:06:28;;;;;;;;;;;;;;;12.62;78.13;98805.72;4987680;28;19926;-79
2022/10/06 01:08:56;;;;;;;;;;;;;;;12.63;78.13;98802.69;4944422;28;19926;-78
2022/10/06 01:11:24;;;;;;;;;;;;;;;12.62;78.19;98803.78;4972870;28;19933;-81
2022/10/06 01:13:54;;;;;;;;;;;;;;;12.64;78.14;98803.50;4984139;28;19930;-82
2022/10/06 01:16:25;;;;;;;;;;;;;;;12.64;78.32;98812.50;4967792;28;19927;-82
2022/10/06 01:18:56;;;;;;;;;;;;;;;12.68;78.11;98807.25;4990368;28;19926;-82
2022/10/06 01:21:26;;;;;;;;;;;;;;;12.71;77.92;98806.63;4941062;28;19926;-82
2022/10/06 01:23:57;;;;;;;;;;;;;;;12.72;78.08;98805.50;4968244;28;19925;-82
2022/10/06 01:32:10;;;;;;;;;;;;;;;12.67;78.05;98802.88;4938083;28;19926;-77
2022/10/06 01:34:38;;;;;;;;;;;;;;;12.65;78.07;98800.47;4956134;28;19933;-76
2022/10/06 01:37:06;;;;;;;;;;;;;;;12.64;78.18;98803.50;4957249;28;20053;-76
2022/10/06 01:39:37;;;;;;;;;;;;;;;12.63;78.32;98801.91;4937508;29;19926;-76
2022/10/06 01:42:05;;;;;;;;;;;;;;;12.63;78.24;98804.63;4984466;28;19958;-77
2022/10/06 01:44:33;;;;;;;;;;;;;;;12.61;78.30;98813.09;4981367;28;19996;-77
2022/10/06 01:47:04;;;;;;;;;;;;;;;12.57;78.41;98812.91;4937422;28;20021;-81
2022/10/06 01:52:26;;;;;;;;;;;;;;;12.49;78.89;98821.75;4973386;28;19957;-82
2022/10/06 01:54:56;;;;;;;;;;;;;;;12.49;79.00;98823.69;4968179;28;19937;-82
2022/10/06 01:57:49;;;;;;;;;;;;;;;12.49;78.89;98832.66;4972862;28;19941;-81
2022/10/06 02:00:18;;;;;;;;;;;;;;;12.46;78.92;98827.81;4963061;28;19977;-82
2022/10/06 02:02:49;;;;;;;;;;;;;;;12.44;78.99;98831.94;4959582;28;19930;-82
2022/10/06 02:05:18;;;;;;;;;;;;;;;12.45;78.80;98842.53;4973149;28;19958;-81
2022/10/06 02:07:51;;;;;;;;;;;;;;;12.43;78.98;98842.06;4957476;28;19926;-82
2022/10/06 02:14:18;;;;;;;;;;;;;;;12.49;78.80;98835.38;4976311;28;19926;-80
2022/10/06 02:16:47;;;;;;;;;;;;;;;12.47;78.86;98834.91;4981778;28;20398;-79
2022/10/06 02:22:07;;;;;;;;;;;;;;;12.47;78.65;98845.00;4958051;28;19989;-79
2022/10/06 02:24:36;;;;;;;;;;;;;;;12.46;78.81;98835.97;4956670;28;20021;-79
2022/10/06 02:27:05;;;;;;;;;;;;;;;12.48;78.57;98843.88;4990840;28;19997;-79
2022/10/06 02:29:36;;;;;;;;;;;;;;;12.48;78.57;98839.22;4957004;28;20339;-79
2022/10/06 02:32:05;;;;;;;;;;;;;;;12.47;78.56;98843.06;4984483;28;19930;-79
2022/10/06 02:34:34;;;;;;;;;;;;;;;12.48;78.81;98844.69;4957937;28;19930;-79
2022/10/06 02:37:04;;;;;;;;;;;;;;;12.50;78.74;98847.91;4973117;28;19937;-76
2022/10/06 02:39:32;;;;;;;;;;;;;;;12.49;78.84;98840.84;4985771;28;19937;-76
2022/10/06 02:42:01;;;;;;;;;;;;;;;12.51;78.84;98854.97;4986332;28;19926;-76
2022/10/06 02:44:32;;;;;;;;;;;;;;;12.51;78.98;98849.50;4969475;28;20282;-76
2022/10/06 02:47:26;;;;;;;;;;;;;;;12.54;79.23;98854.38;4966576;28;20009;-76
2022/10/06 02:49:57;;;;;;;;;;;;;;;12.56;79.00;98856.78;4986740;28;19953;-76
2022/10/06 02:52:51;;;;;;;;;;;;;;;12.57;79.15;98852.97;4971930;28;19926;-76
2022/10/06 02:55:45;;;;;;;;;;;;;;;12.56;78.85;98852.16;4970216;28;20025;-77
2022/10/06 02:58:13;;;;;;;;;;;;;;;12.56;78.55;98854.88;4954376;28;20021;-78
2022/10/06 03:01:04;;;;;;;;;;;;;;;12.54;78.34;98856.31;4963002;28;20282;-78
2022/10/06 03:03:53;;;;;;;;;;;;;;;12.54;78.55;98862.56;4960031;28;20460;-77
2022/10/06 03:06:43;;;;;;;;;;;;;;;12.54;78.27;98853.56;4983305;28;20503;-75
2022/10/06 03:09:37;;;;;;;;;;;;;;;12.53;78.24;98855.50;4969727;28;19973;-76
2022/10/06 03:12:27;;;;;;;;;;;;;;;12.49;78.13;98870.81;4970300;28;19957;-79
2022/10/06 03:15:15;;;;;;;;;;;;;;;12.44;78.19;98868.19;4963844;28;19930;-85
2022/10/06 03:18:05;;;;;;;;;;;;;;;12.39;78.96;98862.81;4984116;28;19927;-79
2022/10/06 03:21:22;;;;;;;;;;;;;;;12.36;79.04;98866.16;4972437;28;19926;-85
2022/10/06 03:24:10;;;;;;;;;;;;;;;12.37;78.93;98875.97;4952111;28;19926;-85
2022/10/06 03:26:42;;;;;;;;;;;;;;;12.35;79.00;98885.53;4989453;28;19933;-86
2022/10/06 03:29:12;;;;;;;;;;;;;;;12.34;78.91;98890.16;4972837;28;19961;-85
2022/10/06 03:31:43;;;;;;;;;;;;;;;12.33;78.99;98897.53;4975485;28;19933;-84
2022/10/06 03:34:16;;;;;;;;;;;;;;;12.30;79.07;98897.31;4987530;28;19927;-84
2022/10/06 03:36:45;;;;;;;;;;;;;;;12.28;79.09;98908.50;4979943;28;19926;-77
2022/10/06 03:39:19;;;;;;;;;;;;;;;12.27;79.25;98914.28;4986323;28;19934;-77
2022/10/06 03:42:14;;;;;;;;;;;;;;;12.30;79.41;98917.22;4970965;28;19934;-76
2022/10/06 03:44:42;;;;;;;;;;;;;;;12.33;78.97;98923.97;4971615;28;19930;-76
2022/10/06 03:47:10;;;;;;;;;;;;;;;12.34;78.91;98931.03;4950755;28;19926;-76
2022/10/06 03:49:46;;;;;;;;;;;;;;;12.36;78.95;98934.28;4955644;28;19930;-76
2022/10/06 03:52:16;;;;;;;;;;;;;;;12.40;79.07;98942.66;4968529;28;19949;-78
2022/10/06 03:54:47;;;;;;;;;;;;;;;12.45;78.48;98951.56;4977560;28;19966;-79
2022/10/06 03:57:22;;;;;;;;;;;;;;;12.48;78.40;98948.25;4971458;28;19929;-78
2022/10/06 03:59:50;;;;;;;;;;;;;;;12.51;78.71;98955.00;4956703;28;19933;-79
2022/10/06 04:02:19;;;;;;;;;;;;;;;12.55;78.25;98947.84;4964904;28;19930;-80
2022/10/06 04:04:49;;;;;;;;;;;;;;;12.56;78.12;98950.28;4949039;28;19926;-80
2022/10/06 04:07:17;;;;;;;;;;;;;;;12.60;78.22;98961.41;4941321;28;20376;-78
2022/10/06 04:09:47;;;;;;;;;;;;;;;12.64;78.26;98954.25;4959480;28;20349;-77
2022/10/06 04:12:42;;;;;;;;;;;;;;;12.64;77.89;98956.16;4938288;28;19927;-78
2022/10/06 04:15:57;;;;;;;;;;;;;;;12.62;77.90;98959.19;4978528;28;19926;-78
2022/10/06 04:22:31;;;;;;;;;;;;;;;12.54;78.47;98968.06;4977064;28;19965;-78
2022/10/06 04:25:19;;;;;;;;;;;;;;;12.51;78.51;98972.16;4983356;28;19937;-78
2022/10/06 04:28:07;;;;;;;;;;;;;;;12.53;78.48;98980.88;4987301;28;20412;-81
2022/10/06 04:30:38;;;;;;;;;;;;;;;12.54;78.22;98974.31;4958070;28;20381;-77
2022/10/06 04:33:10;;;;;;;;;;;;;;;12.55;77.92;98981.38;4956242;28;19961;-81
2022/10/06 04:35:38;;;;;;;;;;;;;;;12.55;78.12;98980.56;4941611;28;19934;-81
2022/10/06 04:38:09;;;;;;;;;;;;;;;12.57;78.01;98983.81;4982214;28;19926;-80
2022/10/06 04:40:39;;;;;;;;;;;;;;;12.58;78.20;98980.78;4972625;28;20386;-80
2022/10/06 04:43:08;;;;;;;;;;;;;;;12.63;77.97;98990.00;4973160;28;19926;-80
2022/10/06 04:45:36;;;;;;;;;;;;;;;12.64;78.32;98984.25;4981218;28;20429;-80
2022/10/06 04:48:04;;;;;;;;;;;;;;;12.67;78.17;98991.81;4990031;28;19926;-80
2022/10/06 04:50:36;;;;;;;;;;;;;;;12.69;78.02;98996.97;4988552;28;19926;-79
2022/10/06 04:53:09;;;;;;;;;;;;;;;12.71;78.58;98994.75;4957414;28;19926;-80
2022/10/06 04:56:04;;;;;;;;;;;;;;;12.71;78.52;98994.75;4973219;28;19926;-79
2022/10/06 04:58:35;;;;;;;;;;;;;;;12.73;78.25;98993.38;4973150;28;19930;-76
2022/10/06 05:01:04;;;;;;;;;;;;;;;12.75;77.98;98998.50;4952673;28;19957;-76
2022/10/06 05:03:33;;;;;;;;;;;;;;;12.77;78.12;99001.75;4949787;28;20001;-74
2022/10/06 05:06:28;;;;;;;;;;;;;;;12.81;77.96;99013.69;4969204;28;19948;-73
2022/10/06 05:08:59;;;;;;;;;;;;;;;12.81;78.00;99013.69;4963032;28;19936;-75
2022/10/06 05:11:30;;;;;;;;;;;;;;;12.81;78.00;99016.41;4977493;28;19926;-76
2022/10/06 05:13:59;;;;;;;;;;;;;;;12.84;77.84;99016.63;4989222;28;19933;-75
2022/10/06 05:16:30;;;;;;;;;;;;;;;12.85;77.92;99025.63;4934831;28;20029;-75
2022/10/06 05:19:00;;;;;;;;;;;;;;;12.88;77.84;99026.91;4953452;28;19930;-75
2022/10/06 05:21:30;;;;;;;;;;;;;;;12.90;77.67;99036.44;4967514;28;19926;-75
2022/10/06 05:24:24;;;;;;;;;;;;;;;12.91;78.03;99040.78;4965134;28;20028;-76
2022/10/06 05:26:54;;;;;;;;;;;;;;;12.91;78.08;99038.03;4959743;28;19942;-78
2022/10/06 05:29:27;;;;;;;;;;;;;;;12.94;77.99;99048.34;4971554;28;19926;-77
2022/10/06 05:31:56;;;;;;;;;;;;;;;12.97;78.15;99055.94;4951345;28;19934;-76
2022/10/06 05:34:27;;;;;;;;;;;;;;;12.97;77.82;99055.94;4984681;28;20013;-73
2022/10/06 05:36:55;;;;;;;;;;;;;;;12.97;77.57;99055.94;4971796;28;19933;-77
2022/10/06 05:39:25;;;;;;;;;;;;;;;12.99;77.68;99064.63;4955099;28;20380;-76
2022/10/06 05:44:59;;;;;;;;;;;;;;;13.03;77.67;99068.38;4961887;28;19969;-81
2022/10/06 05:47:30;;;;;;;;;;;;;;;13.04;77.42;99071.91;4966607;28;19936;-93
2022/10/06 05:50:00;;;;;;;;;;;;;;;13.06;77.71;99075.97;4952393;28;19930;-93
2022/10/06 05:52:29;;;;;;;;;;;;;;;13.07;77.45;99088.50;4961547;28;19969;-92
2022/10/06 05:55:00;;;;;;;;;;;;;;;13.10;77.44;99082.47;4960906;28;20440;-93
2022/10/06 05:57:31;;;;;;;;;;;;;;;13.11;77.19;99089.53;4970747;28;20021;-80
2022/10/06 06:00:01;;;;;;;;;;;;;;;13.15;77.29;99094.38;4956782;28;19926;-80
2022/10/06 06:02:40;;;;;;;;;;;;;;;13.17;77.04;99103.09;4972814;28;19965;-87
2022/10/06 06:05:10;;;;;;;;;;;;;;;13.20;77.28;99099.75;4984805;28;19930;-88
2022/10/06 06:07:39;;;;;;;;;;;;;;;13.21;76.73;99095.91;4996231;28;19941;-81
2022/10/06 06:10:09;;;;;;;;;;;;;;;13.24;77.02;99100.81;4982634;28;20297;-81
2022/10/06 06:12:42;;;;;;;;;;;;;;;13.27;77.04;99111.13;4974426;28;19985;-87
2022/10/06 06:18:16;;;;;;;;;;;;;;;13.30;76.79;99113.25;4972494;28;19993;-83
2022/10/06 06:20:45;;;;;;;;;;;;;;;13.34;76.58;99114.28;4989024;28;20013;-81
2022/10/06 06:23:14;;;;;;;;;;;;;;;13.35;76.88;99113.97;4972185;28;19930;-81
2022/10/06 06:25:43;;;;;;;;;;;;;;;13.37;76.53;99121.88;4967747;28;20342;-80
2022/10/06 06:28:13;;;;;;;;;;;;;;;13.40;76.53;99125.91;4955241;28;19926;-81
2022/10/06 06:30:42;;;;;;;;;;;;;;;13.43;76.38;99130.78;4976250;28;19934;-91
2022/10/06 06:33:10;;;;;;;;;;;;;;;13.43;76.33;99136.25;4941023;28;19927;-92
2022/10/06 06:35:39;;;;;;;;;;;;;;;13.45;76.57;99139.47;4943068;28;20348;-79
2022/10/06 06:38:10;;;;;;;;;;;;;;;13.46;76.46;99150.09;4937292;28;19934;-79
2022/10/06 06:40:41;;;;;;;;;;;;;;;13.50;76.10;99153.84;4957655;28;19932;-86
2022/10/06 06:43:18;;;;;;;;;;;;;;;13.53;76.54;99158.72;4970939;28;19926;-87
2022/10/06 06:46:05;;;;;;;;;;;;;;;13.54;76.32;99160.34;4981569;28;19938;-76
2022/10/06 06:48:47;;;;;;;;;;;;;;;13.54;76.15;99176.72;4982506;28;19973;-76
2022/10/06 06:51:16;;;;;;;;;;;;;;;13.62;76.17;99183.41;4957981;28;19926;-76
2022/10/06 06:53:45;;;;;;;;;;;;;;;13.67;76.07;99182.50;4975334;28;20386;-76
2022/10/06 06:56:15;;;;;;;;;;;;;;;13.72;75.76;99185.94;4920617;29;19933;-76
2022/10/06 06:58:49;;;;;;;;;;;;;;;13.81;75.26;99194.25;4984561;28;19932;-76
2022/10/06 07:01:17;;;;;;;;;;;;;;;13.82;75.42;99202.16;4966952;28;20025;-76
2022/10/06 07:03:46;;;;;;;;;;;;;;;13.85;75.50;99196.09;4954862;28;19953;-76
2022/10/06 07:06:36;;;;;;;;;;;;;;;13.94;75.29;99201.66;4950907;28;19934;-76
2022/10/06 07:09:05;;;;;;;;;;;;;;;13.97;75.56;99198.34;4979549;28;19927;-76
2022/10/06 07:11:34;;;;;;;;;;;;;;;13.99;75.86;99201.56;4966782;28;19926;-76
2022/10/06 07:14:11;;;;;;;;;;;;;;;14.00;76.33;99214.09;4954779;28;19933;-76
2022/10/06 07:25:19;;;;;;;;;;;;;;;14.11;77.00;99245.63;4953064;28;20028;-76
2022/10/06 07:28:17;;;;;;;;;;;;;;;14.05;77.79;99240.53;4971334;28;20058;-75
2022/10/06 07:30:49;;;;;;;;;;;;;;;14.07;77.96;99249.25;4949094;28;19926;-74
2022/10/06 07:33:41;;;;;;;;;;;;;;;14.09;78.08;99247.03;4974286;28;19937;-74
2022/10/06 07:36:10;;;;;;;;;;;;;;;14.09;78.09;99266.16;4978943;28;20417;-77
2022/10/06 07:38:40;;;;;;;;;;;;;;;14.09;78.53;99268.88;4934070;28;19962;-77
2022/10/06 07:41:10;;;;;;;;;;;;;;;14.09;78.71;99264.22;4970554;28;19933;-77
2022/10/06 07:43:53;;;;;;;;;;;;;;;14.11;78.56;99275.69;4973474;28;20495;-77
2022/10/06 07:46:24;;;;;;;;;;;;;;;14.11;78.66;99277.56;4953019;28;20460;-79
2022/10/06 07:49:10;;;;;;;;;;;;;;;14.06;79.08;99286.72;4985183;28;19927;-77
2022/10/06 07:51:38;;;;;;;;;;;;;;;14.03;79.28;99292.75;4974167;28;19942;-77
2022/10/06 07:54:07;;;;;;;;;;;;;;;13.99;79.60;99291.72;4972525;28;20013;-75
2022/10/06 07:59:47;;;;;;;;;;;;;;;13.89;79.29;99291.91;4973674;28;19926;-81
2022/10/06 08:02:22;;;;;;;;;;;;;;;13.88;78.33;99296.56;4954751;28;19977;-81
2022/10/06 08:05:14;;;;;;;;;;;;;;;13.89;77.61;99308.28;4986781;28;19948;-81
2022/10/06 08:07:43;;;;;;;;;;;;;;;13.86;76.96;99309.72;4972884;28;19934;-80
2022/10/06 08:10:11;;;;;;;;;;;;;;;13.88;76.20;99317.59;4987770;28;19926;-81
2022/10/06 08:12:39;;;;;;;;;;;;;;;13.88;75.66;99317.59;4949898;28;19933;-76
2022/10/06 08:15:10;;;;;;;;;;;;;;;13.94;75.14;99329.25;4968299;28;19933;-75
2022/10/06 08:17:41;;;;;;;;;;;;;;;13.93;72.54;99322.19;4964449;28;20016;-76
2022/10/06 08:20:10;;;;;;;;;;;;;;;13.89;72.05;99335.63;4966330;28;20054;-75
2022/10/06 08:22:39;;;;;;;;;;;;;;;13.91;71.89;99343.53;4946911;28;20580;-76
2022/10/06 08:25:08;;;;;;;;;;;;;;;13.79;72.23;99342.03;4954773;28;19926;-75
2022/10/06 08:27:37;;;;;;;;;;;;;;;13.84;72.64;99346.63;4960977;28;19977;-75
2022/10/06 08:30:06;;;;;;;;;;;;;;;13.81;72.18;99344.50;4962042;28;19930;-73
2022/10/06 08:32:34;;;;;;;;;;;;;;;13.74;72.20;99350.34;4962751;28;20009;-74
2022/10/06 08:35:05;;;;;;;;;;;;;;;13.74;72.10;99349.50;4963247;28;19930;-74
2022/10/06 08:37:33;;;;;;;;;;;;;;;13.69;71.99;99358.63;4971262;28;19937;-75
2022/10/06 08:40:01;;;;;;;;;;;;;;;13.68;70.68;99361.63;4969843;28;19961;-76
2022/10/06 08:42:32;;;;;;;;;;;;;;;13.65;70.90;99362.22;5095731;23;20340;-76
2022/10/06 08:45:03;;;;;;;;;;;;;;;13.67;70.13;99360.00;5066250;23;19941;-84
2022/10/06 08:47:33;;;;;;;;;;;;;;;13.68;70.61;99356.97;4957474;28;19927;-85
2022/10/06 08:50:02;;;;;;;;;;;;;;;13.68;70.85;99365.16;4969592;28;19926;-85
2022/10/06 08:52:44;;;;;;;;;;;;;;;13.66;70.50;99369.31;4962491;28;19938;-86
2022/10/06 08:55:15;;;;;;;;;;;;;;;13.65;70.50;99373.97;5203564;23;20026;-77
2022/10/06 08:57:46;;;;;;;;;;;;;;;13.67;70.31;99369.00;4957876;28;19926;-76
2022/10/06 09:00:15;;;;;;;;;;;;;;;13.70;70.44;99373.09;4928418;28;20020;-78
2022/10/06 09:02:46;;;;;;;;;;;;;;;13.72;70.48;99373.59;4969150;28;20017;-77
2022/10/06 09:05:18;;;;;;;;;;;;;;;13.73;70.58;99375.19;4933562;28;20495;-77
2022/10/06 09:07:51;;;;;;;;;;;;;;;13.77;70.61;99373.50;4940735;28;19926;-77
2022/10/06 09:10:24;;;;;;;;;;;;;;;13.85;70.23;99373.66;4960881;28;19926;-78
2022/10/06 09:12:54;;;;;;;;;;;;;;;13.92;69.72;99373.28;4965471;28;20383;-77
2022/10/06 09:15:29;;;;;;;;;;;;;;;13.99;69.29;99373.69;4955133;28;19981;-77
2022/10/06 09:17:59;;;;;;;;;;;;;;;14.03;68.75;99380.19;4932450;28;20431;-77
2022/10/06 09:20:28;;;;;;;;;;;;;;;14.11;68.61;99390.47;4952360;28;19938;-78
2022/10/06 09:22:58;;;;;;;;;;;;;;;14.16;68.39;99382.16;4951345;28;19934;-76
2022/10/06 09:25:27;;;;;;;;;;;;;;;14.28;68.53;99383.63;4941646;28;20389;-77
2022/10/06 09:27:56;;;;;;;;;;;;;;;14.34;68.17;99387.91;4949902;28;19976;-77
2022/10/06 09:33:21;;;;;;;;;;;;;;;14.51;66.85;99395.56;4999427;23;19926;-78
2022/10/06 09:36:07;;;;;;;;;;;;;;;14.61;66.27;99393.44;5013898;28;19929;-77
2022/10/06 09:38:47;;;;;;;;;;;;;;;14.75;66.16;99395.38;5000327;28;19933;-77
2022/10/06 09:41:15;;;;;;;;;;;;;;;14.74;65.31;99396.50;4981410;28;20040;-78
2022/10/06 09:43:51;;;;;;;;;;;;;;;14.71;65.31;99397.13;4958754;28;19958;-77
2022/10/06 09:46:20;;;;;;;;;;;;;;;14.68;65.42;99402.06;4965584;28;19926;-77
2022/10/06 09:48:48;;;;;;;;;;;;;;;14.65;65.40;99397.22;4967053;28;20420;-76
2022/10/06 09:51:17;;;;;;;;;;;;;;;14.69;65.88;99402.88;4960956;28;20013;-73
2022/10/06 09:54:05;;;;;;;;;;;;;;;14.75;65.72;99401.66;4962157;28;19973;-78
2022/10/06 09:56:58;;;;;;;;;;;;;;;14.78;65.31;99403.00;4986358;28;19933;-78
2022/10/06 09:59:30;;;;;;;;;;;;;;;14.83;64.96;99402.91;5013368;28;19930;-78
2022/10/06 10:02:03;;;;;;;;;;;;;;;14.89;65.29;99401.69;5008007;28;19933;-78
2022/10/06 10:04:35;;;;;;;;;;;;;;;15.01;65.22;99403.91;4983781;28;19930;-78
2022/10/06 10:07:13;;;;;;;;;;;;;;;15.00;65.52;99407.75;4998672;28;19937;-79
2022/10/06 10:09:43;;;;;;;;;;;;;;;15.06;64.85;99399.16;4981286;28;19925;-78
2022/10/06 10:12:26;;;;;;;;;;;;;;;15.12;64.93;99397.91;4967908;28;19926;-79
2022/10/06 10:14:58;;;;;;;;;;;;;;;15.20;63.46;99389.00;5002908;28;19933;-74
2022/10/06 10:17:34;;;;;;;;;;;;;;;15.23;63.22;99392.25;4956611;28;19933;-74
2022/10/06 10:20:07;;;;;;;;;;;;;;;15.21;63.06;99398.03;4960435;28;20113;-74
2022/10/06 10:22:37;;;;;;;;;;;;;;;15.16;63.36;99398.13;4961411;28;19953;-74
2022/10/06 10:25:12;;;;;;;;;;;;;;;15.14;63.97;99390.22;4964688;28;19926;-74
2022/10/06 10:27:44;;;;;;;;;;;;;;;15.18;64.27;99394.00;4955251;28;19930;-77
2022/10/06 10:30:13;;;;;;;;;;;;;;;15.25;64.12;99400.97;4957298;28;19932;-78
2022/10/06 10:32:45;;;;;;;;;;;;;;;15.25;64.12;99400.97;4953505;28;19926;-77
2022/10/06 10:36:04;;;;;;;;;;;;;;;15.19;64.09;99405.75;4998108;28;19930;-77
2022/10/06 10:38:39;;;;;;;;;;;;;;;15.16;64.32;99400.88;4989828;28;20013;-78
2022/10/06 10:41:12;;;;;;;;;;;;;;;15.14;63.60;99403.13;4960437;28;19989;-78
2022/10/06 10:43:46;;;;;;;;;;;;;;;15.12;63.79;99397.91;4963141;28;20048;-78
2022/10/06 10:46:16;;;;;;;;;;;;;;;15.14;63.99;99403.91;4955699;28;19940;-78
2022/10/06 10:48:48;;;;;;;;;;;;;;;15.18;63.66;99401.41;4952768;28;19926;-78
2022/10/06 10:51:20;;;;;;;;;;;;;;;15.14;63.62;99401.19;4996170;28;19957;-78
2022/10/06 10:53:49;;;;;;;;;;;;;;;15.12;63.48;99400.66;4987121;28;19933;-78
2022/10/06 10:56:22;;;;;;;;;;;;;;;15.12;63.42;99405.31;4990864;28;20012;-78
2022/10/06 10:58:52;;;;;;;;;;;;;;;15.15;63.95;99397.31;4949593;28;20020;-77
2022/10/06 11:01:25;;;;;;;;;;;;;;;15.22;63.65;99399.66;4948288;28;19930;-78
2022/10/06 11:03:56;;;;;;;;;;;;;;;15.30;63.59;99407.16;4947465;28;19961;-78
2022/10/06 11:06:48;;;;;;;;;;;;;;;15.41;63.04;99403.09;4950108;28;19925;-77
2022/10/06 11:09:17;;;;;;;;;;;;;;;15.65;62.81;99396.56;5000120;28;20393;-78
2022/10/06 11:11:52;;;;;;;;;;;;;;;15.92;62.63;99395.66;4972000;28;20303;-78
2022/10/06 11:14:25;;;;;;;;;;;;;;;16.13;61.90;99402.28;4993340;28;19933;-78
2022/10/06 11:16:55;;;;;;;;;;;;;;;16.19;61.32;99406.53;4986141;28;19936;-78
2022/10/06 11:19:26;;;;;;;;;;;;;;;16.23;61.50;99402.03;4989054;28;20037;-79
2022/10/06 11:21:56;;;;;;;;;;;;;;;16.24;61.80;99405.56;4989982;28;19930;-78
2022/10/06 11:24:27;;;;;;;;;;;;;;;16.09;62.11;99406.78;4990494;28;19930;-78
2022/10/06 11:27:11;;;;;;;;;;;;;;;15.77;63.09;99409.75;4976864;28;19933;-78
2022/10/06 11:29:45;;;;;;;;;;;;;;;15.65;63.56;99407.53;4953809;28;19932;-77
2022/10/06 11:32:38;;;;;;;;;;;;;;;15.70;63.61;99410.94;4986903;28;19925;-76
2022/10/06 11:35:40;;;;;;;;;;;;;;;15.66;62.21;99409.16;4974361;28;20300;-78
2022/10/06 11:38:11;;;;;;;;;;;;;;;15.63;61.82;99407.84;4963895;28;19981;-78
2022/10/06 11:40:48;;;;;;;;;;;;;;;15.68;62.08;99401.44;4977190;28;20340;-78
2022/10/06 11:43:18;;;;;;;;;;;;;;;15.68;61.02;99399.50;4996677;28;19926;-78
2022/10/06 11:45:51;;;;;;;;;;;;;;;15.77;60.13;99398.78;4962979;28;20033;-77
2022/10/06 11:48:21;;;;;;;;;;;;;;;15.87;58.24;99401.25;4957658;28;19926;-77
2022/10/06 11:50:54;;;;;;;;;;;;;;;16.00;57.29;99396.88;4961500;28;19930;-78
2022/10/06 11:53:23;;;;;;;;;;;;;;;16.07;57.64;99403.53;4956799;28;20009;-78
2022/10/06 11:56:06;;;;;;;;;;;;;;;16.18;57.35;99393.94;4943906;28;20304;-78
2022/10/06 11:58:50;;;;;;;;;;;;;;;16.27;57.30;99391.25;4950977;28;20429;-78
2022/10/06 12:01:33;;;;;;;;;;;;;;;16.39;56.50;99385.19;4971954;28;19926;-78
2022/10/06 12:04:14;;;;;;;;;;;;;;;16.45;56.88;99379.25;4985090;28;19926;-77
2022/10/06 12:06:53;;;;;;;;;;;;;;;16.44;57.99;99382.31;4966290;28;19926;-77
2022/10/06 12:09:30;;;;;;;;;;;;;;;16.40;58.42;99379.38;4976369;28;19926;-78
2022/10/06 12:12:02;;;;;;;;;;;;;;;16.30;58.17;99374.19;4974403;28;19926;-72
2022/10/06 12:14:36;;;;;;;;;;;;;;;16.19;57.91;99378.28;4952146;28;19985;-74
2022/10/06 12:17:25;;;;;;;;;;;;;;;16.18;57.70;99374.72;4971621;28;19927;-74
2022/10/06 12:19:55;;;;;;;;;;;;;;;16.21;55.63;99376.88;4937972;28;20677;-77
2022/10/06 12:25:41;;;;;;;;;;;;;;;16.16;57.37;99367.97;4992169;28;20000;-77
2022/10/06 12:28:13;;;;;;;;;;;;;;;16.09;57.22;99362.91;4944449;28;19933;-78
2022/10/06 12:30:44;;;;;;;;;;;;;;;16.04;57.98;99367.72;4971642;28;19954;-71
2022/10/06 12:33:38;;;;;;;;;;;;;;;16.00;57.47;99366.72;4987736;28;19973;-71
2022/10/06 12:36:15;;;;;;;;;;;;;;;16.04;56.75;99357.56;5004035;28;19925;-71
2022/10/06 12:38:44;;;;;;;;;;;;;;;16.18;56.67;99354.72;4994595;28;19926;-71
2022/10/06 12:41:13;;;;;;;;;;;;;;;16.21;56.07;99352.19;4980239;28;19926;-72
2022/10/06 12:43:49;;;;;;;;;;;;;;;16.23;55.84;99352.66;4962322;28;19938;-72
2022/10/06 12:46:20;;;;;;;;;;;;;;;16.33;54.79;99348.06;4952829;28;20012;-72
2022/10/06 12:48:54;;;;;;;;;;;;;;;16.42;54.55;99352.47;4966753;28;19925;-73
2022/10/06 12:51:29;;;;;;;;;;;;;;;16.41;54.45;99352.78;4999796;28;19933;-72
2022/10/06 12:53:59;;;;;;;;;;;;;;;16.31;55.23;99353.06;4970065;28;19977;-73
2022/10/06 12:56:30;;;;;;;;;;;;;;;16.26;54.74;99350.44;4961866;28;19926;-72
2022/10/06 12:58:58;;;;;;;;;;;;;;;16.26;56.24;99345.75;4963457;28;20028;-72
2022/10/06 13:01:27;;;;;;;;;;;;;;;16.30;55.60;99345.94;4966572;28;19925;-72
2022/10/06 13:03:55;;;;;;;;;;;;;;;16.34;55.27;99345.00;4966270;28;19933;-72
2022/10/06 13:06:25;;;;;;;;;;;;;;;16.33;55.12;99346.13;4961452;28;19929;-72
2022/10/06 13:09:05;;;;;;;;;;;;;;;16.38;55.03;99356.97;4978388;28;19932;-72
2022/10/06 13:11:33;;;;;;;;;;;;;;;16.42;54.24;99343.44;4961870;28;20456;-72
2022/10/06 13:14:08;;;;;;;;;;;;;;;16.46;54.37;99338.94;4963169;28;20012;-72
2022/10/06 13:16:39;;;;;;;;;;;;;;;16.54;53.88;99351.06;4954194;28;19926;-72
2022/10/06 13:19:14;;;;;;;;;;;;;;;16.57;52.98;99345.78;4986562;28;20372;-72
2022/10/06 13:21:42;;;;;;;;;;;;;;;16.54;53.56;99351.06;4961674;28;19926;-72
2022/10/06 13:24:15;;;;;;;;;;;;;;;16.57;53.68;99344.97;4964316;28;19925;-72
2022/10/06 13:26:43;;;;;;;;;;;;;;;16.58;53.58;99347.38;4966778;28;19970;-72
2022/10/06 13:29:20;;;;;;;;;;;;;;;16.62;53.12;99348.38;4996112;28;19926;-72
2022/10/06 13:35:05;;;;;;;;;;;;;;;16.75;52.92;99347.47;4961634;28;19933;-72
2022/10/06 13:37:36;;;;;;;;;;;;;;;16.65;53.16;99353.22;4955770;28;19926;-72
2022/10/06 13:40:18;;;;;;;;;;;;;;;16.49;53.37;99343.78;4954306;28;19932;-72
2022/10/06 13:42:50;;;;;;;;;;;;;;;16.38;53.73;99337.75;4982426;28;20388;-72
2022/10/06 13:45:18;;;;;;;;;;;;;;;16.41;53.93;99344.56;4956192;28;19965;-72
2022/10/06 13:47:47;;;;;;;;;;;;;;;16.40;53.97;99345.66;4968331;28;20020;-73
2022/10/06 13:50:18;;;;;;;;;;;;;;;16.43;53.91;99348.59;4961733;28;20064;-72
2022/10/06 13:52:49;;;;;;;;;;;;;;;16.42;53.79;99344.25;4965826;28;20016;-72
2022/10/06 13:55:22;;;;;;;;;;;;;;;16.34;54.59;99341.44;4961355;28;20255;-72
2022/10/06 13:58:05;;;;;;;;;;;;;;;16.29;54.77;99345.13;4982850;28;19926;-72
2022/10/06 14:00:50;;;;;;;;;;;;;;;16.32;54.92;99343.69;4984222;28;19989;-72
2022/10/06 14:03:20;;;;;;;;;;;;;;;16.45;54.46;99345.53;4964190;28;19973;-72
2022/10/06 14:05:48;;;;;;;;;;;;;;;16.55;53.90;99348.00;4964580;28;19938;-77
2022/10/06 14:08:20;;;;;;;;;;;;;;;16.59;53.67;99346.25;4984011;28;19981;-76
2022/10/06 14:10:50;;;;;;;;;;;;;;;16.57;53.10;99356.75;4971935;28;20001;-77
2022/10/06 14:13:20;;;;;;;;;;;;;;;16.57;53.29;99347.72;4980341;28;19925;-78
2022/10/06 14:15:49;;;;;;;;;;;;;;;16.61;53.29;99345.94;4963728;28;19926;-78